sensor_id;sensor_type;location;lat;lon;timestamp;pressure;altitude;pressure_sealevel;temperature;humidity
43155;BME280;34212;51.018;13.586;2023-11-22T00:01:39;98381.50;;;3.93;84.95
43155;BME280;34212;51.018;13.586;2023-11-22T00:06:40;98387.28;;;3.87;84.67
43155;BME280;34212;51.018;13.586;2023-11-22T00:11:43;98390.66;;;3.78;84.81
43155;BME280;34212;51.018;13.586;2023-11-22T00:16:44;98399.66;;;3.64;84.96
43155;BME280;34212;51.018;13.586;2023-11-22T00:21:46;98393.91;;;3.59;85.11
43155;BME280;34212;51.018;13.586;2023-11-22T00:26:47;98377.72;;;3.63;85.99
43155;BME280;34212;51.018;13.586;2023-11-22T00:31:49;98390.91;;;3.63;84.91
43155;BME280;34212;51.018;13.586;2023-11-22T00:36:50;98389.81;;;3.66;85.68
43155;BME280;34212;51.018;13.586;2023-11-22T00:41:52;98400.97;;;3.69;85.57
43155;BME280;34212;51.018;13.586;2023-11-22T00:46:54;98414.63;;;3.75;85.23
43155;BME280;34212;51.018;13.586;2023-11-22T00:51:56;98419.56;;;3.68;84.92
43155;BME280;34212;51.018;13.586;2023-11-22T00:57:01;98429.63;;;3.63;84.82
43155;BME280;34212;51.018;13.586;2023-11-22T01:02:03;98428.31;;;3.57;84.75
43155;BME280;34212;51.018;13.586;2023-11-22T01:07:06;98438.84;;;3.57;85.21
43155;BME280;34212;51.018;13.586;2023-11-22T01:12:08;98432.50;;;3.60;84.79
43155;BME280;34212;51.018;13.586;2023-11-22T01:17:10;98448.94;;;3.63;85.40
43155;BME280;34212;51.018;13.586;2023-11-22T01:22:12;98471.94;;;3.61;84.65
43155;BME280;34212;51.018;13.586;2023-11-22T01:27:13;98482.84;;;3.57;85.05
43155;BME280;34212;51.018;13.586;2023-11-22T01:32:15;98475.09;;;3.55;84.42
43155;BME280;34212;51.018;13.586;2023-11-22T01:37:18;98488.75;;;3.49;84.39
43155;BME280;34212;51.018;13.586;2023-11-22T01:42:20;98482.59;;;3.48;84.68
43155;BME280;34212;51.018;13.586;2023-11-22T01:47:22;98484.63;;;3.45;84.11
43155;BME280;34212;51.018;13.586;2023-11-22T01:52:23;98496.41;;;3.41;85.04
43155;BME280;34212;51.018;13.586;2023-11-22T01:57:25;98489.31;;;3.41;84.34
43155;BME280;34212;51.018;13.586;2023-11-22T02:02:27;98478.91;;;3.40;85.17
43155;BME280;34212;51.018;13.586;2023-11-22T02:07:29;98469.66;;;3.34;84.11
43155;BME280;34212;51.018;13.586;2023-11-22T02:12:32;98463.78;;;3.31;84.83
43155;BME280;34212;51.018;13.586;2023-11-22T02:17:34;98477.56;;;3.34;85.52
43155;BME280;34212;51.018;13.586;2023-11-22T02:22:45;98486.69;;;3.41;85.27
43155;BME280;34212;51.018;13.586;2023-11-22T02:27:47;98502.75;;;3.50;85.46
43155;BME280;34212;51.018;13.586;2023-11-22T02:32:49;98503.00;;;3.46;85.29
43155;BME280;34212;51.018;13.586;2023-11-22T02:37:50;98507.91;;;3.40;84.83
43155;BME280;34212;51.018;13.586;2023-11-22T02:42:53;98510.16;;;3.33;85.53
43155;BME280;34212;51.018;13.586;2023-11-22T02:47:55;98516.06;;;3.37;85.55
43155;BME280;34212;51.018;13.586;2023-11-22T02:52:57;98524.91;;;3.36;85.13
43155;BME280;34212;51.018;13.586;2023-11-22T02:58:00;98529.72;;;3.42;85.61
43155;BME280;34212;51.018;13.586;2023-11-22T03:03:03;98534.16;;;3.41;85.69
43155;BME280;34212;51.018;13.586;2023-11-22T03:08:09;98521.09;;;3.40;85.25
43155;BME280;34212;51.018;13.586;2023-11-22T03:13:11;98512.69;;;3.35;85.60
43155;BME280;34212;51.018;13.586;2023-11-22T03:18:14;98531.50;;;3.41;85.96
43155;BME280;34212;51.018;13.586;2023-11-22T03:23:17;98558.38;;;3.46;84.92
43155;BME280;34212;51.018;13.586;2023-11-22T03:28:19;98561.00;;;3.46;84.88
43155;BME280;34212;51.018;13.586;2023-11-22T03:33:20;98557.78;;;3.43;84.13
43155;BME280;34212;51.018;13.586;2023-11-22T03:38:24;98568.78;;;3.37;84.77
43155;BME280;34212;51.018;13.586;2023-11-22T03:43:26;98586.28;;;3.38;85.65
43155;BME280;34212;51.018;13.586;2023-11-22T03:48:29;98594.94;;;3.40;85.18
43155;BME280;34212;51.018;13.586;2023-11-22T03:53:30;98604.28;;;3.44;84.69
43155;BME280;34212;51.018;13.586;2023-11-22T03:58:32;98616.25;;;3.48;84.59
43155;BME280;34212;51.018;13.586;2023-11-22T04:03:33;98630.19;;;3.50;84.62
43155;BME280;34212;51.018;13.586;2023-11-22T04:08:35;98641.69;;;3.49;84.68
43155;BME280;34212;51.018;13.586;2023-11-22T04:13:37;98638.56;;;3.44;84.80
43155;BME280;34212;51.018;13.586;2023-11-22T04:18:39;98639.00;;;3.38;84.39
43155;BME280;34212;51.018;13.586;2023-11-22T04:23:42;98664.03;;;3.32;84.40
43155;BME280;34212;51.018;13.586;2023-11-22T04:28:44;98664.38;;;3.28;85.02
43155;BME280;34212;51.018;13.586;2023-11-22T04:33:45;98669.09;;;3.35;85.40
43155;BME280;34212;51.018;13.586;2023-11-22T04:38:47;98691.84;;;3.36;84.48
43155;BME280;34212;51.018;13.586;2023-11-22T04:43:50;98694.00;;;3.31;84.65
43155;BME280;34212;51.018;13.586;2023-11-22T04:48:52;98689.44;;;3.33;84.82
43155;BME280;34212;51.018;13.586;2023-11-22T04:53:53;98691.13;;;3.34;84.48
43155;BME280;34212;51.018;13.586;2023-11-22T04:58:55;98685.25;;;3.31;84.90
43155;BME280;34212;51.018;13.586;2023-11-22T05:03:57;98710.88;;;3.29;85.26
43155;BME280;34212;51.018;13.586;2023-11-22T05:09:00;98713.00;;;3.23;85.02
43155;BME280;34212;51.018;13.586;2023-11-22T05:14:01;98730.00;;;3.19;85.13
43155;BME280;34212;51.018;13.586;2023-11-22T05:19:03;98722.84;;;3.21;85.46
43155;BME280;34212;51.018;13.586;2023-11-22T05:24:04;98725.94;;;3.27;84.93
43155;BME280;34212;51.018;13.586;2023-11-22T05:29:06;98720.41;;;3.18;84.65
43155;BME280;34212;51.018;13.586;2023-11-22T05:34:08;98716.19;;;3.16;85.51
43155;BME280;34212;51.018;13.586;2023-11-22T05:39:10;98722.22;;;3.18;86.06
43155;BME280;34212;51.018;13.586;2023-11-22T05:44:13;98730.28;;;3.28;86.13
43155;BME280;34212;51.018;13.586;2023-11-22T05:49:14;98726.34;;;3.33;85.09
43155;BME280;34212;51.018;13.586;2023-11-22T05:54:16;98747.78;;;3.29;84.72
43155;BME280;34212;51.018;13.586;2023-11-22T05:59:18;98743.47;;;3.28;84.47
43155;BME280;34212;51.018;13.586;2023-11-22T06:04:19;98740.50;;;3.32;84.83
43155;BME280;34212;51.018;13.586;2023-11-22T06:09:21;98751.16;;;3.31;84.79
43155;BME280;34212;51.018;13.586;2023-11-22T06:14:24;98751.16;;;3.31;85.78
43155;BME280;34212;51.018;13.586;2023-11-22T06:19:25;98768.75;;;3.30;85.45
43155;BME280;34212;51.018;13.586;2023-11-22T06:24:28;98770.25;;;3.34;85.06
43155;BME280;34212;51.018;13.586;2023-11-22T06:29:29;98775.28;;;3.37;84.82
43155;BME280;34212;51.018;13.586;2023-11-22T06:34:31;98788.47;;;3.37;84.66
43155;BME280;34212;51.018;13.586;2023-11-22T06:39:32;98792.69;;;3.40;84.61
43155;BME280;34212;51.018;13.586;2023-11-22T06:44:34;98802.06;;;3.44;85.06
43155;BME280;34212;51.018;13.586;2023-11-22T06:49:36;98819.25;;;3.50;85.12
43155;BME280;34212;51.018;13.586;2023-11-22T06:54:37;98851.81;;;3.48;85.38
43155;BME280;34212;51.018;13.586;2023-11-22T06:59:39;98857.09;;;3.48;84.62
43155;BME280;34212;51.018;13.586;2023-11-22T07:04:40;98846.66;;;3.47;84.72
43155;BME280;34212;51.018;13.586;2023-11-22T07:09:45;98846.06;;;3.43;84.80
43155;BME280;34212;51.018;13.586;2023-11-22T07:14:47;98835.38;;;3.45;84.99
43155;BME280;34212;51.018;13.586;2023-11-22T07:19:55;98836.88;;;3.49;84.57
43155;BME280;34212;51.018;13.586;2023-11-22T07:24:57;98824.81;;;3.45;84.64
43155;BME280;34212;51.018;13.586;2023-11-22T07:30:03;98825.88;;;3.42;84.92
43155;BME280;34212;51.018;13.586;2023-11-22T07:35:06;98836.44;;;3.42;84.94
43155;BME280;34212;51.018;13.586;2023-11-22T07:40:10;98856.25;;;3.48;85.04
43155;BME280;34212;51.018;13.586;2023-11-22T07:45:14;98871.66;;;3.54;85.47
43155;BME280;34212;51.018;13.586;2023-11-22T07:50:32;98882.81;;;3.58;84.42
43155;BME280;34212;51.018;13.586;2023-11-22T07:56:30;98892.75;;;3.54;85.22
43155;BME280;34212;51.018;13.586;2023-11-22T18:08:37;98894.91;;;3.23;85.81
43155;BME280;34212;51.018;13.586;2023-11-22T18:13:39;98890.72;;;3.21;85.41
43155;BME280;34212;51.018;13.586;2023-11-22T18:19:20;98905.03;;;3.17;85.88
43155;BME280;34212;51.018;13.586;2023-11-22T18:24:30;98889.00;;;3.07;85.77
43155;BME280;34212;51.018;13.586;2023-11-22T19:38:46;98793.88;;;3.84;81.75
43155;BME280;34212;51.018;13.586;2023-11-22T19:43:48;98775.78;;;3.66;82.10
43155;BME280;34212;51.018;13.586;2023-11-22T19:48:49;98768.06;;;3.52;82.51
43155;BME280;34212;51.018;13.586;2023-11-22T19:53:51;98780.84;;;3.45;83.68
43155;BME280;34212;51.018;13.586;2023-11-22T19:58:53;98783.59;;;3.44;84.10
43155;BME280;34212;51.018;13.586;2023-11-22T20:03:54;98772.00;;;3.46;84.19
43155;BME280;34212;51.018;13.586;2023-11-22T20:08:56;98770.19;;;3.47;84.25
43155;BME280;34212;51.018;13.586;2023-11-22T20:13:57;98756.47;;;3.42;83.96
43155;BME280;34212;51.018;13.586;2023-11-22T20:18:59;98758.63;;;3.37;83.83
43155;BME280;34212;51.018;13.586;2023-11-22T20:24:00;98736.91;;;3.33;83.76
43155;BME280;34212;51.018;13.586;2023-11-22T20:29:02;98729.94;;;3.32;84.46
43155;BME280;34212;51.018;13.586;2023-11-22T20:34:04;98714.88;;;3.34;85.02
43155;BME280;34212;51.018;13.586;2023-11-22T20:39:05;98711.16;;;3.37;84.53
43155;BME280;34212;51.018;13.586;2023-11-22T20:44:09;98691.97;;;3.35;84.39
43155;BME280;34212;51.018;13.586;2023-11-22T20:49:15;98686.69;;;3.35;84.64
43155;BME280;34212;51.018;13.586;2023-11-22T20:54:17;98684.81;;;3.37;85.34
43155;BME280;34212;51.018;13.586;2023-11-22T20:59:18;98669.09;;;3.35;85.36
43155;BME280;34212;51.018;13.586;2023-11-22T21:04:20;98678.06;;;3.33;85.56
43155;BME280;34212;51.018;13.586;2023-11-22T21:09:21;98693.16;;;3.31;86.12
43155;BME280;34212;51.018;13.586;2023-11-22T21:14:23;98679.97;;;3.31;85.58
43155;BME280;34212;51.018;13.586;2023-11-22T21:19:25;98671.94;;;3.32;84.84
43155;BME280;34212;51.018;13.586;2023-11-22T21:24:26;98671.09;;;3.32;85.63
43155;BME280;34212;51.018;13.586;2023-11-22T21:29:30;98658.88;;;3.31;85.01
43155;BME280;34212;51.018;13.586;2023-11-22T21:34:32;98650.97;;;3.31;85.83
43155;BME280;34212;51.018;13.586;2023-11-22T21:39:33;98633.34;;;3.31;85.79
43155;BME280;34212;51.018;13.586;2023-11-22T21:44:35;98635.88;;;3.33;84.95
43155;BME280;34212;51.018;13.586;2023-11-22T21:49:37;98635.16;;;3.31;85.44
43155;BME280;34212;51.018;13.586;2023-11-22T21:54:39;98621.75;;;3.34;85.45
43155;BME280;34212;51.018;13.586;2023-11-22T21:59:41;98617.91;;;3.38;86.07
43155;BME280;34212;51.018;13.586;2023-11-22T22:04:42;98629.31;;;3.38;85.81
43155;BME280;34212;51.018;13.586;2023-11-22T22:09:46;98629.19;;;3.40;86.20
43155;BME280;34212;51.018;13.586;2023-11-22T22:14:48;98624.88;;;3.39;86.05
43155;BME280;34212;51.018;13.586;2023-11-22T22:19:49;98597.50;;;3.29;86.18
43155;BME280;34212;51.018;13.586;2023-11-22T22:24:51;98583.81;;;3.23;86.89
43155;BME280;34212;51.018;13.586;2023-11-22T22:29:52;98580.47;;;3.21;87.63
43155;BME280;34212;51.018;13.586;2023-11-22T22:34:54;98571.59;;;3.22;87.83
43155;BME280;34212;51.018;13.586;2023-11-22T22:39:55;98574.38;;;3.21;87.55
43155;BME280;34212;51.018;13.586;2023-11-22T22:44:57;98563.84;;;3.21;87.33
43155;BME280;34212;51.018;13.586;2023-11-22T22:49:59;98557.69;;;3.20;88.44
43155;BME280;34212;51.018;13.586;2023-11-22T22:55:00;98542.88;;;3.31;88.28
43155;BME280;34212;51.018;13.586;2023-11-22T23:00:03;98537.16;;;3.37;86.78
43155;BME280;34212;51.018;13.586;2023-11-22T23:05:08;98524.66;;;3.39;86.70
43155;BME280;34212;51.018;13.586;2023-11-22T23:10:25;98521.78;;;3.31;86.20
43155;BME280;34212;51.018;13.586;2023-11-22T23:15:26;98527.31;;;3.28;86.38
43155;BME280;34212;51.018;13.586;2023-11-22T23:20:29;98517.81;;;3.25;85.80
43155;BME280;34212;51.018;13.586;2023-11-22T23:25:44;98520.09;;;3.30;86.74
43155;BME280;34212;51.018;13.586;2023-11-22T23:30:46;98513.00;;;3.30;86.48
43155;BME280;34212;51.018;13.586;2023-11-22T23:35:47;98500.44;;;3.22;87.34
43155;BME280;34212;51.018;13.586;2023-11-22T23:40:49;98508.81;;;3.16;87.46
43155;BME280;34212;51.018;13.586;2023-11-22T23:45:51;98505.56;;;3.13;87.16
43155;BME280;34212;51.018;13.586;2023-11-22T23:50:55;98502.31;;;3.09;86.78
43155;BME280;34212;51.018;13.586;2023-11-22T23:55:56;98503.16;;;3.10;87.05
